Time;durP1;ratioP1;P1;durP2;ratioP2;P2;SDS_P1;SDS_P2;PMS_P1;PMS_P2;Temp;Humidity;BMP_temperature;BMP_pressure;BME280_temperature;BME280_humidity;BME280_pressure;Samples;Min_cycle;Max_cycle;Signal;HPM_P1;HPM_P2
2023/09/10 00:00:23;;;;;;;844.35;757.97;;;17.00;99.90;;;;;;5015572;28;20469;-89
2023/09/10 00:02:48;;;;;;;825.30;745.47;;;17.00;99.90;;;;;;4999175;28;20044;-89
2023/09/10 00:05:14;;;;;;;838.15;753.42;;;17.00;99.90;;;;;;5014798;28;20937;-89
2023/09/10 00:07:40;;;;;;;856.88;769.40;;;17.00;99.90;;;;;;5015096;28;20049;-89
2023/09/10 00:10:06;;;;;;;849.83;765.63;;;17.00;99.90;;;;;;4998700;28;20053;-89
2023/09/10 00:12:32;;;;;;;835.88;751.08;;;17.00;99.90;;;;;;5014642;28;20057;-89
2023/09/10 00:14:57;;;;;;;843.78;759.70;;;17.00;99.90;;;;;;4998980;28;20140;-89
2023/09/10 00:17:23;;;;;;;860.63;772.70;;;17.00;99.90;;;;;;4998690;28;20053;-89
2023/09/10 00:19:49;;;;;;;852.03;766.40;;;16.90;99.90;;;;;;4998330;28;20580;-90
2023/09/10 00:22:15;;;;;;;812.65;732.63;;;17.00;99.90;;;;;;5011311;28;20125;-90
2023/09/10 00:24:40;;;;;;;844.28;759.28;;;16.90;99.90;;;;;;5014499;28;20037;-90
2023/09/10 00:27:06;;;;;;;859.95;772.45;;;16.90;99.90;;;;;;4998598;28;20045;-90
2023/09/10 00:29:32;;;;;;;847.92;762.65;;;16.90;99.90;;;;;;4997921;28;20042;-89
2023/09/10 00:31:58;;;;;;;844.13;760.67;;;16.90;99.90;;;;;;5014480;28;20125;-89
2023/09/10 00:34:23;;;;;;;841.03;760.00;;;16.90;99.90;;;;;;4998009;28;20421;-90
2023/09/10 00:36:49;;;;;;;832.90;749.00;;;16.90;99.90;;;;;;4997911;28;20076;-88
2023/09/10 00:39:15;;;;;;;847.35;761.45;;;16.90;99.90;;;;;;5014527;28;20143;-89
2023/09/10 00:41:41;;;;;;;840.95;756.35;;;16.80;99.90;;;;;;4997206;28;20042;-89
2023/09/10 00:44:06;;;;;;;832.25;749.22;;;16.80;99.90;;;;;;5014594;28;20150;-90
2023/09/10 00:46:32;;;;;;;828.05;745.15;;;16.80;99.90;;;;;;4997477;28;20105;-90
2023/09/10 00:48:59;;;;;;;862.25;775.38;;;16.80;99.90;;;;;;4995916;28;20124;-90
2023/09/10 00:51:25;;;;;;;819.78;737.97;;;16.80;99.90;;;;;;5014225;28;20048;-87
2023/09/10 00:53:52;;;;;;;821.22;737.65;;;16.70;99.90;;;;;;5013612;28;20409;-89
2023/09/10 00:56:20;;;;;;;847.30;762.92;;;16.60;99.90;;;;;;4997744;28;20056;-89
2023/09/10 00:58:49;;;;;;;825.83;743.35;;;16.60;99.90;;;;;;4997239;28;20049;-89
2023/09/10 01:01:15;;;;;;;853.33;766.25;;;16.60;99.90;;;;;;4998037;28;20048;-89
2023/09/10 01:03:41;;;;;;;854.40;769.20;;;16.60;99.90;;;;;;5013443;28;20119;-90
2023/09/10 01:06:07;;;;;;;817.03;737.28;;;16.60;99.90;;;;;;4997531;28;20469;-90
2023/09/10 01:08:33;;;;;;;826.00;743.47;;;16.60;99.90;;;;;;5013880;28;20029;-89
2023/09/10 01:11:27;;;;;;;829.22;747.70;;;16.60;99.90;;;;;;5013255;28;20397;-89
2023/09/10 01:14:25;;;;;;;892.67;798.58;;;16.60;99.90;;;;;;4997249;28;20056;-89
2023/09/10 01:17:02;;;;;;;914.47;815.58;;;16.50;99.90;;;;;;5013432;28;20040;-90
2023/09/10 01:19:37;;;;;;;924.58;822.83;;;16.50;99.90;;;;;;5013836;28;20044;-90
2023/09/10 01:22:14;;;;;;;869.65;780.42;;;16.50;99.90;;;;;;5014017;28;20037;-89
2023/09/10 01:24:51;;;;;;;843.80;759.00;;;16.50;99.90;;;;;;4997171;28;20060;-90
2023/09/10 01:27:18;;;;;;;894.42;799.20;;;16.50;99.90;;;;;;5013853;28;20091;-88
2023/09/10 01:29:44;;;;;;;840.90;757.05;;;16.50;99.90;;;;;;4996997;28;20041;-91
2023/09/10 01:32:31;;;;;;;856.20;770.70;;;16.50;99.90;;;;;;4997534;28;20076;-90
2023/09/10 01:35:12;;;;;;;839.20;755.13;;;16.50;99.90;;;;;;4997779;28;20195;-90
2023/09/10 01:37:42;;;;;;;857.10;769.90;;;16.50;99.90;;;;;;5013597;28;20167;-90
2023/09/10 01:40:09;;;;;;;832.67;750.67;;;16.40;99.90;;;;;;5013286;28;20038;-90
2023/09/10 01:42:36;;;;;;;899.28;804.10;;;16.40;99.90;;;;;;5013094;28;20033;-90
2023/09/10 01:45:03;;;;;;;829.38;746.75;;;16.40;99.90;;;;;;4996947;28;20045;-88
2023/09/10 01:47:30;;;;;;;860.08;772.10;;;16.30;99.90;;;;;;4997091;28;20057;-90
2023/09/10 01:49:56;;;;;;;807.95;728.13;;;16.30;99.90;;;;;;4997220;28;20108;-89
2023/09/10 01:52:21;;;;;;;839.22;753.40;;;16.20;99.90;;;;;;4996277;28;20723;-89
2023/09/10 01:54:47;;;;;;;893.90;800.22;;;16.20;99.90;;;;;;4996764;28;20052;-89
2023/09/10 01:57:13;;;;;;;886.63;792.65;;;16.20;99.90;;;;;;4996474;28;20128;-90
2023/09/10 01:59:38;;;;;;;838.42;755.25;;;16.20;99.90;;;;;;4996317;28;20042;-89
2023/09/10 02:02:04;;;;;;;826.38;742.90;;;16.10;99.90;;;;;;5013038;28;20076;-88
2023/09/10 02:04:30;;;;;;;833.85;750.65;;;16.10;99.90;;;;;;5012880;28;20116;-89
2023/09/10 02:06:56;;;;;;;909.03;811.40;;;16.10;99.90;;;;;;5012695;28;20161;-89
2023/09/10 02:09:21;;;;;;;922.67;823.63;;;16.10;99.90;;;;;;5012906;28;20048;-90
2023/09/10 02:11:47;;;;;;;844.40;759.63;;;16.20;99.90;;;;;;5011891;28;20069;-89
2023/09/10 02:14:13;;;;;;;866.47;777.58;;;16.20;99.90;;;;;;5009861;28;20489;-89
2023/09/10 02:16:39;;;;;;;867.70;777.38;;;16.10;99.90;;;;;;4993229;28;20144;-89
2023/09/10 02:19:06;;;;;;;859.53;770.97;;;16.10;99.90;;;;;;5012881;28;20071;-89
2023/09/10 02:21:32;;;;;;;901.92;805.00;;;16.10;99.90;;;;;;5012232;28;20121;-89
2023/09/10 02:23:59;;;;;;;882.85;790.85;;;16.10;99.90;;;;;;4996983;28;20108;-90
2023/09/10 02:26:25;;;;;;;867.28;779.00;;;16.10;99.90;;;;;;4996180;28;20461;-90
2023/09/10 02:28:51;;;;;;;906.28;810.63;;;16.10;99.90;;;;;;5012550;28;20128;-89
2023/09/10 02:31:20;;;;;;;907.75;810.88;;;16.10;99.90;;;;;;5012719;28;20033;-90
2023/09/10 02:33:46;;;;;;;924.97;824.92;;;16.00;99.90;;;;;;4995865;28;20049;-89
2023/09/10 02:36:12;;;;;;;904.53;807.92;;;16.10;99.90;;;;;;5013216;28;20048;-90
2023/09/10 02:38:38;;;;;;;914.65;817.30;;;16.00;99.90;;;;;;5012815;28;20077;-90
2023/09/10 02:41:03;;;;;;;850.47;764.65;;;16.00;99.90;;;;;;4994467;28;20076;-89
2023/09/10 02:43:29;;;;;;;906.55;812.03;;;16.00;99.90;;;;;;4995690;28;20044;-89
2023/09/10 02:45:55;;;;;;;828.80;746.28;;;16.00;99.90;;;;;;4995106;28;20072;-89
2023/09/10 02:48:20;;;;;;;903.85;809.90;;;15.90;99.90;;;;;;5013055;28;20045;-89
2023/09/10 02:50:46;;;;;;;861.08;772.55;;;15.90;99.90;;;;;;5012001;28;20513;-88
2023/09/10 02:53:12;;;;;;;915.42;818.30;;;15.80;99.90;;;;;;4996022;28;20120;-89
2023/09/10 02:55:38;;;;;;;870.13;780.83;;;15.80;99.90;;;;;;4995362;28;20092;-89
2023/09/10 02:58:03;;;;;;;905.05;808.17;;;15.80;99.90;;;;;;4996244;28;20483;-90
2023/09/10 03:00:30;;;;;;;892.95;797.90;;;15.80;99.90;;;;;;4995955;28;20053;-89
2023/09/10 03:02:56;;;;;;;898.92;803.92;;;15.80;99.90;;;;;;4995712;28;20453;-89
2023/09/10 03:05:22;;;;;;;897.50;802.75;;;15.80;99.90;;;;;;4995906;28;20050;-87
2023/09/10 03:07:55;;;;;;;919.90;822.10;;;15.80;99.90;;;;;;5011929;28;20049;-88
2023/09/10 03:10:21;;;;;;;886.58;793.83;;;15.70;99.90;;;;;;5015876;28;20042;-89
2023/09/10 03:12:47;;;;;;;914.83;815.17;;;15.70;99.90;;;;;;5029475;28;20065;-88
2023/09/10 03:15:13;;;;;;;865.25;775.30;;;15.70;99.90;;;;;;4995184;28;20136;-89
2023/09/10 03:17:39;;;;;;;912.83;816.40;;;15.70;99.90;;;;;;4995743;28;20045;-89
2023/09/10 03:20:08;;;;;;;923.50;822.53;;;15.70;99.90;;;;;;5009088;28;20041;-89
2023/09/10 03:22:35;;;;;;;908.97;810.53;;;15.70;99.90;;;;;;5021183;28;20042;-89
2023/09/10 03:25:01;;;;;;;915.47;816.83;;;15.70;99.90;;;;;;4997007;28;20045;-89
2023/09/10 03:27:26;;;;;;;870.35;780.20;;;15.70;99.90;;;;;;5016018;28;20052;-89
2023/09/10 03:29:52;;;;;;;852.42;765.58;;;15.70;99.90;;;;;;5015821;28;20576;-90
2023/09/10 03:32:18;;;;;;;893.00;797.40;;;15.70;99.90;;;;;;4999592;28;20059;-90
2023/09/10 03:34:43;;;;;;;836.00;752.00;;;15.70;99.90;;;;;;4998941;28;20494;-90
2023/09/10 03:37:09;;;;;;;894.05;798.20;;;15.70;99.90;;;;;;4999476;28;20045;-90
2023/09/10 03:39:36;;;;;;;860.30;772.05;;;15.70;99.90;;;;;;5016105;28;20447;-90
2023/09/10 03:42:02;;;;;;;903.55;806.17;;;15.80;99.90;;;;;;4999023;28;20041;-89
2023/09/10 03:44:28;;;;;;;928.85;828.60;;;15.70;99.90;;;;;;4998726;28;20045;-89
2023/09/10 03:46:54;;;;;;;940.30;838.60;;;15.70;99.90;;;;;;4986674;28;20146;-89
2023/09/10 03:49:21;;;;;;;894.25;801.25;;;15.70;99.90;;;;;;5002659;28;20064;-89
2023/09/10 03:51:48;;;;;;;891.35;798.13;;;15.70;99.90;;;;;;4998992;28;20053;-89
2023/09/10 03:54:14;;;;;;;894.13;802.13;;;15.60;99.90;;;;;;5015471;28;20033;-89
2023/09/10 03:56:43;;;;;;;926.53;827.50;;;15.60;99.90;;;;;;4998238;28;20117;-89
2023/09/10 03:59:08;;;;;;;863.53;775.90;;;15.60;99.90;;;;;;4985727;28;20113;-89
2023/09/10 04:01:35;;;;;;;881.10;789.80;;;15.60;99.90;;;;;;4998014;28;20137;-89
2023/09/10 04:04:02;;;;;;;897.85;804.95;;;15.60;99.90;;;;;;4999076;28;20064;-90
2023/09/10 04:06:28;;;;;;;921.25;822.65;;;15.50;99.90;;;;;;5014493;28;20045;-89
2023/09/10 04:08:54;;;;;;;942.20;841.55;;;15.50;99.90;;;;;;4998327;28;20120;-90
2023/09/10 04:11:19;;;;;;;909.63;814.67;;;15.50;99.90;;;;;;5014608;28;20444;-90
2023/09/10 04:13:45;;;;;;;887.35;794.08;;;15.50;99.90;;;;;;5014131;28;20041;-89
2023/09/10 04:16:11;;;;;;;932.30;832.85;;;15.50;99.90;;;;;;5013676;28;20407;-89
2023/09/10 04:18:40;;;;;;;941.72;838.10;;;15.50;99.90;;;;;;5013226;28;20045;-89
2023/09/10 04:21:06;;;;;;;901.95;805.70;;;15.50;99.90;;;;;;4997171;28;20049;-88
2023/09/10 04:23:32;;;;;;;909.58;813.60;;;15.50;99.90;;;;;;4996709;28;20052;-89
2023/09/10 04:25:58;;;;;;;921.42;822.42;;;15.50;99.90;;;;;;5007839;28;20038;-89
2023/09/10 04:28:24;;;;;;;926.63;825.65;;;15.50;99.90;;;;;;4997350;28;20107;-89
2023/09/10 04:30:50;;;;;;;922.13;822.25;;;15.50;99.90;;;;;;5011266;28;20038;-89
2023/09/10 04:33:18;;;;;;;907.65;812.03;;;15.50;99.90;;;;;;4996045;28;20519;-90
2023/09/10 04:35:49;;;;;;;939.78;837.30;;;15.50;99.90;;;;;;4986836;28;20044;-90
2023/09/10 04:38:15;;;;;;;915.78;816.72;;;15.50;99.90;;;;;;5000229;28;20057;-90
2023/09/10 04:40:43;;;;;;;891.30;797.22;;;15.50;99.90;;;;;;4998702;28;20523;-89
2023/09/10 04:43:09;;;;;;;926.22;825.83;;;15.50;99.90;;;;;;4989285;28;20073;-90
2023/09/10 04:45:36;;;;;;;882.28;790.75;;;15.50;99.90;;;;;;4996140;28;20132;-89
2023/09/10 04:48:02;;;;;;;887.13;795.42;;;15.50;99.90;;;;;;4995345;28;20101;-88
2023/09/10 04:50:28;;;;;;;932.15;830.92;;;15.50;99.90;;;;;;4994682;28;20042;-88
2023/09/10 04:52:54;;;;;;;925.95;825.05;;;15.50;99.90;;;;;;4995065;28;20056;-88
2023/09/10 04:55:19;;;;;;;924.47;824.97;;;15.50;99.90;;;;;;4994506;28;20088;-89
2023/09/10 04:57:46;;;;;;;881.80;789.65;;;15.40;99.90;;;;;;5011731;28;20552;-88
2023/09/10 05:00:12;;;;;;;922.05;823.10;;;15.50;99.90;;;;;;5011588;28;20049;-87
2023/09/10 05:02:38;;;;;;;924.63;823.38;;;15.50;99.90;;;;;;4994043;28;20038;-88
2023/09/10 05:05:04;;;;;;;963.47;832.78;;;15.50;99.90;;;;;;4993580;28;20034;-88
2023/09/10 05:07:30;;;;;;;947.25;829.88;;;15.40;99.90;;;;;;4995678;28;20045;-89
2023/09/10 05:09:55;;;;;;;884.03;791.05;;;15.40;99.90;;;;;;4994342;28;20095;-89
2023/09/10 05:12:21;;;;;;;884.88;791.15;;;15.50;99.90;;;;;;5011854;28;20045;-88
2023/09/10 05:14:47;;;;;;;906.13;808.85;;;15.50;99.90;;;;;;5008660;28;20046;-89
2023/09/10 05:17:13;;;;;;;905.53;809.60;;;15.50;99.90;;;;;;5010175;28;20060;-88
2023/09/10 05:19:39;;;;;;;934.42;833.85;;;15.40;99.90;;;;;;4993696;28;20496;-90
2023/09/10 05:22:04;;;;;;;939.80;837.97;;;15.50;99.90;;;;;;5010511;28;20120;-89
2023/09/10 05:24:30;;;;;;;875.63;784.25;;;15.50;99.90;;;;;;5010843;28;20041;-89
2023/09/10 05:26:56;;;;;;;893.33;799.63;;;15.40;99.90;;;;;;4986149;28;20049;-89
2023/09/10 05:29:22;;;;;;;892.72;798.45;;;15.50;99.90;;;;;;5005579;28;20135;-89
2023/09/10 05:31:48;;;;;;;902.78;807.30;;;15.50;99.90;;;;;;4995196;28;20558;-88
2023/09/10 05:34:14;;;;;;;883.20;792.33;;;15.50;99.90;;;;;;5011484;28;20034;-88
2023/09/10 05:36:39;;;;;;;934.25;831.17;;;15.50;99.90;;;;;;4995560;28;20099;-90
2023/09/10 05:39:05;;;;;;;910.30;813.28;;;15.50;99.90;;;;;;4995843;28;20103;-89
2023/09/10 05:41:31;;;;;;;916.63;817.90;;;15.50;99.90;;;;;;5011510;28;20493;-89
2023/09/10 05:43:57;;;;;;;911.92;813.97;;;15.50;99.90;;;;;;5010632;28;20103;-89
2023/09/10 05:46:25;;;;;;;939.28;837.40;;;15.60;99.90;;;;;;5000147;28;20452;-88
2023/09/10 05:48:51;;;;;;;879.00;785.53;;;15.60;99.90;;;;;;4994386;28;20706;-89
2023/09/10 05:51:17;;;;;;;836.83;751.15;;;15.70;99.90;;;;;;5011268;28;20037;-89
2023/09/10 05:53:44;;;;;;;927.45;827.65;;;15.80;99.90;;;;;;4994782;28;20072;-88
2023/09/10 05:56:10;;;;;;;918.70;817.67;;;15.80;99.90;;;;;;5011484;28;20307;-89
2023/09/10 05:58:36;;;;;;;889.95;795.58;;;15.90;99.90;;;;;;5011571;28;20469;-89
2023/09/10 06:01:02;;;;;;;917.13;816.08;;;15.90;99.90;;;;;;4995717;28;20053;-89
2023/09/10 06:03:28;;;;;;;897.28;802.65;;;15.90;99.90;;;;;;4995635;28;20053;-89
2023/09/10 06:05:56;;;;;;;847.28;761.05;;;16.00;99.90;;;;;;4994626;28;20060;-90
2023/09/10 06:08:22;;;;;;;850.40;763.83;;;16.00;99.90;;;;;;5012042;28;20045;-89
2023/09/10 06:10:48;;;;;;;773.88;699.33;;;16.10;99.90;;;;;;4985116;28;20037;-89
2023/09/10 06:13:14;;;;;;;745.45;673.58;;;16.20;99.90;;;;;;5003338;28;20058;-88
2023/09/10 06:15:40;;;;;;;743.85;673.83;;;16.30;99.90;;;;;;4991080;28;20401;-88
2023/09/10 06:18:05;;;;;;;718.92;653.28;;;16.30;99.90;;;;;;4991106;28;20594;-89
2023/09/10 06:20:31;;;;;;;783.28;709.35;;;16.40;99.90;;;;;;4988669;28;20133;-89
2023/09/10 06:22:57;;;;;;;740.97;673.85;;;16.50;99.90;;;;;;4987641;28;20356;-90
2023/09/10 06:25:24;;;;;;;832.95;746.55;;;16.50;99.90;;;;;;4991036;28;20052;-90
2023/09/10 06:27:50;;;;;;;723.85;659.22;;;16.60;99.90;;;;;;4990912;28;20401;-90
2023/09/10 06:30:16;;;;;;;799.75;720.50;;;16.70;99.90;;;;;;5008432;28;20141;-90
2023/09/10 06:32:41;;;;;;;842.13;756.45;;;16.80;99.90;;;;;;4990726;28;20081;-90
2023/09/10 06:35:07;;;;;;;814.60;732.55;;;16.90;99.90;;;;;;4991715;28;20216;-90
2023/09/10 06:37:33;;;;;;;818.90;738.67;;;17.10;99.90;;;;;;4991380;28;20536;-90
2023/09/10 06:39:59;;;;;;;832.28;749.25;;;17.20;99.90;;;;;;4991085;28;20038;-90
2023/09/10 06:42:25;;;;;;;856.67;768.83;;;17.30;99.90;;;;;;4991460;28;20103;-90
2023/09/10 06:44:51;;;;;;;782.30;705.97;;;17.40;99.90;;;;;;4991684;28;20099;-90
2023/09/10 06:47:17;;;;;;;785.90;710.80;;;17.50;99.90;;;;;;4978059;28;20051;-92
2023/09/10 06:49:42;;;;;;;831.63;748.88;;;17.60;99.90;;;;;;4991358;28;20050;-90
2023/09/10 06:52:09;;;;;;;723.63;657.25;;;17.70;99.90;;;;;;4989587;28;20079;-90
2023/09/10 06:54:35;;;;;;;631.58;577.00;;;17.80;99.90;;;;;;5013347;28;20509;-90
2023/09/10 06:57:01;;;;;;;614.50;561.47;;;17.90;99.90;;;;;;5007531;28;20128;-89
2023/09/10 06:59:30;;;;;;;608.22;556.38;;;18.00;99.90;;;;;;4993470;28;20136;-89
2023/09/10 07:01:56;;;;;;;603.30;553.20;;;18.10;99.90;;;;;;5011069;28;20187;-89
2023/09/10 07:04:23;;;;;;;590.35;538.63;;;18.20;99.90;;;;;;5011963;28;20076;-89
2023/09/10 07:06:50;;;;;;;514.55;471.30;;;18.30;99.90;;;;;;4994940;28;20823;-88
2023/09/10 07:09:17;;;;;;;474.23;433.15;;;18.40;99.90;;;;;;4994355;28;20048;-89
2023/09/10 07:11:43;;;;;;;519.70;472.13;;;18.40;99.90;;;;;;4997214;28;20060;-89
2023/09/10 07:14:09;;;;;;;495.92;452.70;;;18.50;99.90;;;;;;4997936;28;20041;-89
2023/09/10 07:16:34;;;;;;;484.92;442.55;;;18.50;99.90;;;;;;4997936;28;20508;-89
2023/09/10 07:19:01;;;;;;;469.05;426.85;;;18.70;99.90;;;;;;4999027;28;20048;-89
2023/09/10 07:21:27;;;;;;;570.78;515.22;;;18.80;99.90;;;;;;4996871;28;20349;-89
2023/09/10 07:23:53;;;;;;;497.50;452.83;;;18.90;99.90;;;;;;5014668;28;20041;-89
2023/09/10 07:26:19;;;;;;;496.17;450.08;;;19.00;99.90;;;;;;5009937;28;20065;-89
2023/09/10 07:28:44;;;;;;;491.00;442.42;;;19.10;99.90;;;;;;4997122;28;20053;-89
2023/09/10 07:31:10;;;;;;;556.92;499.67;;;19.20;99.90;;;;;;4997832;28;20081;-89
2023/09/10 07:33:36;;;;;;;544.40;488.25;;;19.20;99.90;;;;;;4997279;28;20468;-89
2023/09/10 07:36:02;;;;;;;509.90;461.88;;;19.40;99.90;;;;;;4997235;28;20040;-88
2023/09/10 07:38:28;;;;;;;573.53;516.45;;;19.50;99.90;;;;;;5014258;28;20037;-90
2023/09/10 07:40:53;;;;;;;522.38;470.92;;;19.60;99.90;;;;;;4997257;28;20143;-90
2023/09/10 07:43:22;;;;;;;585.22;524.92;;;19.70;99.90;;;;;;5013814;28;20092;-89
2023/09/10 07:45:48;;;;;;;614.80;550.85;;;19.80;99.90;;;;;;4996142;28;20044;-89
2023/09/10 07:48:15;;;;;;;671.28;599.17;;;19.90;99.90;;;;;;4998059;28;20367;-89
2023/09/10 07:50:41;;;;;;;540.30;486.85;;;20.00;99.90;;;;;;5012790;28;20045;-90
2023/09/10 07:53:07;;;;;;;551.88;494.75;;;20.20;99.90;;;;;;4998461;28;20041;-89
2023/09/10 07:55:36;;;;;;;682.83;613.75;;;20.30;99.90;;;;;;5012852;28;20083;-89
2023/09/10 07:58:03;;;;;;;671.88;605.67;;;20.40;99.90;;;;;;5013430;28;20037;-88
2023/09/10 08:00:31;;;;;;;713.10;643.38;;;20.50;99.90;;;;;;4997316;28;20042;-89
2023/09/10 08:03:02;;;;;;;671.75;604.60;;;20.60;99.90;;;;;;4986600;28;20116;-89
2023/09/10 08:05:28;;;;;;;692.53;624.28;;;20.70;99.90;;;;;;4995662;28;20396;-88
2023/09/10 08:08:02;;;;;;;636.85;578.40;;;20.80;99.90;;;;;;4997930;28;20061;-89
2023/09/10 08:10:29;;;;;;;657.53;597.25;;;20.90;99.90;;;;;;5011160;28;20049;-88
2023/09/10 08:12:55;;;;;;;631.58;574.20;;;21.00;99.90;;;;;;4993723;28;20057;-89
2023/09/10 08:15:21;;;;;;;662.00;599.72;;;21.10;99.90;;;;;;5009643;28;20125;-89
2023/09/10 08:17:50;;;;;;;659.15;596.17;;;21.20;99.90;;;;;;5002221;28;20148;-89
2023/09/10 08:20:15;;;;;;;637.90;577.28;;;21.30;99.90;;;;;;4993931;28;20112;-89
2023/09/10 08:22:43;;;;;;;628.10;568.90;;;21.30;99.90;;;;;;4999837;28;20049;-88
2023/09/10 08:25:09;;;;;;;629.92;570.92;;;21.40;99.90;;;;;;4993018;28;20560;-88
2023/09/10 08:27:37;;;;;;;656.05;596.53;;;21.50;99.90;;;;;;4992609;28;20054;-89
2023/09/10 08:30:05;;;;;;;680.08;616.47;;;21.60;99.90;;;;;;4993628;28;20096;-88
2023/09/10 08:32:34;;;;;;;648.67;588.42;;;21.70;99.90;;;;;;5009023;28;20049;-89
2023/09/10 08:35:00;;;;;;;615.67;560.00;;;21.80;99.90;;;;;;5009577;28;20041;-88
2023/09/10 08:37:25;;;;;;;627.35;569.78;;;21.90;99.90;;;;;;4993310;28;20041;-89
2023/09/10 08:39:51;;;;;;;692.45;629.35;;;22.00;99.90;;;;;;5009133;28;20441;-89
2023/09/10 08:42:33;;;;;;;690.50;628.13;;;22.10;99.90;;;;;;4993154;28;20062;-88
2023/09/10 08:45:07;;;;;;;645.70;588.70;;;22.20;99.90;;;;;;4993371;28;20111;-87
2023/09/10 08:47:40;;;;;;;682.33;620.08;;;22.30;99.90;;;;;;4992348;28;20423;-88
2023/09/10 08:50:14;;;;;;;728.78;663.55;;;22.30;99.90;;;;;;4993605;28;20069;-88
2023/09/10 08:52:44;;;;;;;640.28;581.80;;;22.40;99.90;;;;;;5008357;28;20077;-87
2023/09/10 08:55:12;;;;;;;742.10;674.88;;;22.50;99.90;;;;;;4993322;28;20115;-87
2023/09/10 08:57:40;;;;;;;629.92;573.97;;;22.60;99.90;;;;;;4997318;28;20042;-88
2023/09/10 09:00:12;;;;;;;651.15;595.00;;;22.70;99.90;;;;;;4991236;28;20049;-88
2023/09/10 09:02:40;;;;;;;638.15;581.60;;;22.80;99.90;;;;;;4993108;28;20050;-88
2023/09/10 09:05:06;;;;;;;652.30;594.20;;;22.90;99.90;;;;;;5009054;28;20042;-89
2023/09/10 09:07:47;;;;;;;517.55;472.25;;;23.00;99.90;;;;;;4991915;28;20053;-88
2023/09/10 09:10:19;;;;;;;553.30;503.42;;;23.10;99.90;;;;;;4995566;28;20041;-88
2023/09/10 09:12:45;;;;;;;493.85;446.15;;;23.10;99.90;;;;;;4991066;28;20057;-89
2023/09/10 09:15:14;;;;;;;397.45;361.65;;;23.20;99.90;;;;;;4989075;28;20050;-89
2023/09/10 09:17:42;;;;;;;525.95;475.02;;;23.20;99.90;;;;;;4992954;28;20567;-89
2023/09/10 09:20:11;;;;;;;515.40;466.17;;;23.30;99.90;;;;;;4992687;28;20048;-89
2023/09/10 09:22:43;;;;;;;493.90;447.23;;;23.40;99.90;;;;;;5008503;28;20069;-88
2023/09/10 09:25:09;;;;;;;541.15;492.00;;;23.50;99.90;;;;;;5009050;28;20044;-88
2023/09/10 09:27:37;;;;;;;459.10;415.10;;;23.60;99.90;;;;;;4991180;28;20148;-88
2023/09/10 09:30:06;;;;;;;458.85;412.85;;;23.70;99.90;;;;;;4991767;28;20234;-88
2023/09/10 09:32:37;;;;;;;451.98;408.83;;;23.80;99.90;;;;;;4991727;28;20045;-88
2023/09/10 09:35:04;;;;;;;348.83;316.83;;;23.80;99.90;;;;;;5008517;28;20476;-88
2023/09/10 09:37:33;;;;;;;527.95;480.15;;;23.90;99.90;;;;;;5008729;28;20042;-89
2023/09/10 09:40:21;;;;;;;486.67;439.42;;;24.00;99.90;;;;;;4992995;28;20041;-89
2023/09/10 09:42:47;;;;;;;500.17;452.88;;;24.10;99.90;;;;;;4991546;28;20038;-89
2023/09/10 09:45:13;;;;;;;467.83;423.17;;;24.10;99.90;;;;;;5008715;28;20044;-88
2023/09/10 09:47:45;;;;;;;449.83;406.75;;;24.20;99.90;;;;;;4991905;28;20045;-89
2023/09/10 09:50:14;;;;;;;499.65;452.35;;;24.30;99.90;;;;;;5008785;28;20447;-89
2023/09/10 09:52:40;;;;;;;473.08;427.65;;;24.40;99.90;;;;;;4991480;28;20061;-89
2023/09/10 09:55:08;;;;;;;488.35;442.15;;;24.40;99.90;;;;;;5008880;28;20061;-89
2023/09/10 09:57:36;;;;;;;559.60;507.48;;;24.50;99.90;;;;;;4985010;28;20050;-89
2023/09/10 10:00:08;;;;;;;570.17;516.65;;;24.50;99.90;;;;;;4986447;28;20034;-88
2023/09/10 10:02:34;;;;;;;551.70;500.05;;;24.50;99.90;;;;;;4979750;28;20049;-89
2023/09/10 10:05:02;;;;;;;552.15;500.02;;;24.50;99.90;;;;;;4991587;28;20080;-89
2023/09/10 10:07:28;;;;;;;544.47;493.58;;;24.60;99.90;;;;;;4980817;28;20053;-89
2023/09/10 10:09:54;;;;;;;512.08;464.67;;;24.70;99.90;;;;;;4991042;28;20042;-88
2023/09/10 10:12:20;;;;;;;563.50;510.70;;;24.70;99.90;;;;;;5007722;28;20123;-88
2023/09/10 10:15:02;;;;;;;586.80;531.95;;;24.80;99.90;;;;;;5007047;28;20069;-86
2023/09/10 10:17:29;;;;;;;413.13;374.25;;;24.90;99.90;;;;;;5007222;28;20085;-88
2023/09/10 10:19:59;;;;;;;531.88;480.98;;;25.00;99.90;;;;;;5006563;28;20040;-95
2023/09/10 10:22:25;;;;;;;522.25;473.98;;;25.10;99.90;;;;;;4991964;28;20053;-88
2023/09/10 10:24:54;;;;;;;529.78;480.27;;;25.10;99.90;;;;;;5010440;28;20060;-89
2023/09/10 10:27:24;;;;;;;545.83;495.38;;;25.20;99.90;;;;;;4991794;28;20046;-89
2023/09/10 10:29:50;;;;;;;503.95;456.55;;;25.30;99.90;;;;;;4991924;28;20041;-88
2023/09/10 10:32:22;;;;;;;532.15;485.00;;;25.40;99.90;;;;;;4992226;28;20046;-92
2023/09/10 10:35:11;;;;;;;500.30;456.27;;;25.50;99.90;;;;;;4996062;28;20069;-93
2023/09/10 10:38:03;;;;;;;568.88;518.45;;;25.40;99.90;;;;;;4999185;23;20084;-94
2023/09/10 10:44:49;;;;;;;502.10;457.38;;;25.40;99.90;;;;;;5012304;28;20048;-96
2023/09/10 10:47:19;;;;;;;590.80;535.85;;;25.40;99.90;;;;;;4902942;29;20103;-93
2023/09/10 10:49:57;;;;;;;585.67;531.92;;;25.40;99.90;;;;;;4992745;28;20445;-91
2023/09/10 10:52:30;;;;;;;507.48;462.02;;;25.60;99.90;;;;;;4958351;28;20050;-93
2023/09/10 10:54:56;;;;;;;490.35;448.40;;;25.70;99.90;;;;;;4998601;28;20112;-88
2023/09/10 10:57:24;;;;;;;505.90;460.42;;;25.70;99.90;;;;;;4999999;28;20046;-88
2023/09/10 10:59:50;;;;;;;520.88;473.60;;;25.70;99.90;;;;;;4973078;28;20038;-88
2023/09/10 11:02:23;;;;;;;559.50;510.13;;;25.80;99.90;;;;;;4989061;28;20037;-88
2023/09/10 11:05:03;;;;;;;539.15;488.33;;;25.80;99.90;;;;;;5000393;28;20062;-88
2023/09/10 11:07:30;;;;;;;495.65;450.55;;;25.90;99.90;;;;;;4995668;28;20157;-88
2023/09/10 11:09:57;;;;;;;560.67;509.77;;;25.90;99.90;;;;;;4983572;28;20045;-88
2023/09/10 11:12:24;;;;;;;508.27;463.00;;;25.90;99.90;;;;;;4986392;28;20142;-88
2023/09/10 11:14:59;;;;;;;503.08;455.38;;;26.00;99.90;;;;;;4969935;28;20427;-87
2023/09/10 11:17:27;;;;;;;430.27;387.55;;;26.00;99.90;;;;;;4986994;28;20054;-88
2023/09/10 11:19:53;;;;;;;563.00;507.83;;;26.00;99.90;;;;;;4984441;28;20034;-88
2023/09/10 11:22:19;;;;;;;462.17;416.45;;;26.00;99.90;;;;;;4970808;28;20041;-89
2023/09/10 11:25:05;;;;;;;589.05;531.33;;;26.10;99.90;;;;;;4972102;28;20038;-88
2023/09/10 11:27:30;;;;;;;555.50;500.13;;;26.10;99.90;;;;;;4971498;28;20521;-88
2023/09/10 11:30:19;;;;;;;500.42;454.48;;;26.10;99.90;;;;;;4979289;28;20049;-88
2023/09/10 11:32:45;;;;;;;349.95;318.00;;;26.20;99.90;;;;;;5006337;28;20072;-87
2023/09/10 11:35:17;;;;;;;471.30;426.92;;;26.20;99.90;;;;;;4999181;28;20064;-88
2023/09/10 11:37:46;;;;;;;501.63;451.60;;;26.20;99.90;;;;;;4992888;28;20176;-88
2023/09/10 11:40:13;;;;;;;527.78;479.45;;;26.20;99.90;;;;;;4974474;28;20387;-88
2023/09/10 11:42:43;;;;;;;566.58;514.22;;;26.30;99.90;;;;;;5007315;28;20477;-87
2023/09/10 11:45:10;;;;;;;510.10;461.77;;;26.30;99.90;;;;;;4974528;28;20072;-87
2023/09/10 11:47:39;;;;;;;566.60;513.45;;;26.40;99.90;;;;;;4994512;28;20050;-88
2023/09/10 11:50:05;;;;;;;569.20;514.10;;;26.50;99.90;;;;;;4978058;28;20124;-88
2023/09/10 11:52:31;;;;;;;514.85;466.85;;;26.50;99.90;;;;;;4978407;28;20072;-87
2023/09/10 11:54:58;;;;;;;564.65;513.53;;;26.50;99.90;;;;;;4974495;28;20042;-87
2023/09/10 11:57:23;;;;;;;504.88;457.13;;;26.60;99.90;;;;;;5009788;28;20037;-87
2023/09/10 11:59:50;;;;;;;611.78;551.33;;;26.70;99.90;;;;;;4993657;28;20049;-88
2023/09/10 12:02:17;;;;;;;345.25;313.98;;;26.70;99.90;;;;;;4977986;28;20042;-87
2023/09/10 12:04:43;;;;;;;432.65;391.15;;;26.70;99.90;;;;;;5010414;28;20037;-88
2023/09/10 12:07:09;;;;;;;589.72;530.70;;;26.70;99.90;;;;;;4977238;28;20339;-88
2023/09/10 12:09:34;;;;;;;460.00;415.70;;;26.80;99.90;;;;;;4976684;28;20048;-87
2023/09/10 12:12:11;;;;;;;533.60;482.83;;;26.80;99.90;;;;;;4976887;28;20037;-88
2023/09/10 12:14:37;;;;;;;564.33;508.92;;;26.90;99.90;;;;;;5011069;28;20053;-88